Time;durP1;ratioP1;P1;durP2;ratioP2;P2;SDS_P1;SDS_P2;PMS_P1;PMS_P2;Temp;Humidity;BMP_temperature;BMP_pressure;BME280_temperature;BME280_humidity;BME280_pressure;Samples;Min_cycle;Max_cycle;Signal;HPM_P1;HPM_P2
2022/09/04 00:04:39;;;;;;;3.70;1.23;;;;;;;14.95;55.44;101008.52;3431451;83;103454;-89
2022/09/04 00:09:58;;;;;;;2.47;1.00;;;;;;;14.89;55.67;101000.97;3425010;82;99317;-88
2022/09/04 00:15:13;;;;;;;5.03;1.52;;;;;;;14.88;56.10;101003.55;3416337;83;99015;-87
2022/09/04 00:20:43;;;;;;;5.85;1.50;;;;;;;14.82;56.25;101004.50;3421676;83;99043;-88
2022/09/04 00:26:26;;;;;;;5.20;1.57;;;;;;;14.77;56.63;101002.72;3390318;84;98956;-88
2022/09/04 00:31:40;;;;;;;2.65;1.05;;;;;;;14.73;56.85;101003.30;3376990;84;99042;-87
2022/09/04 00:36:45;;;;;;;3.90;1.72;;;;;;;14.69;57.29;101017.14;3393129;84;99169;-89
2022/09/04 00:42:21;;;;;;;5.10;1.82;;;;;;;14.63;57.56;101013.16;3366387;84;98957;-87
2022/09/04 00:48:17;;;;;;;7.15;1.57;;;;;;;14.57;58.20;101018.08;3351304;84;98874;-88
2022/09/04 00:53:32;;;;;;;5.33;1.90;;;;;;;14.49;59.19;101013.70;3386525;84;99012;-87
2022/09/04 00:58:51;;;;;;;4.03;1.60;;;;;;;14.39;59.15;101011.67;3381681;84;99070;-88
2022/09/04 01:04:18;;;;;;;5.67;1.80;;;;;;;14.28;59.23;101014.98;3390255;84;99007;-89
2022/09/04 01:09:55;;;;;;;3.00;1.47;;;;;;;14.20;59.47;101015.52;3387838;84;98925;-88
2022/09/04 01:15:14;;;;;;;4.62;1.77;;;;;;;14.13;59.88;101014.08;3383733;84;99025;-87
2022/09/04 01:20:39;;;;;;;5.47;1.92;;;;;;;14.06;59.81;101016.00;3383547;84;99089;-87
2022/09/04 01:25:57;;;;;;;4.15;1.50;;;;;;;13.98;59.94;101015.16;3395280;83;99050;-88
2022/09/04 01:31:25;;;;;;;4.70;1.80;;;;;;;13.87;60.74;101010.72;3404461;83;98889;-87
2022/09/04 01:37:11;;;;;;;4.20;1.80;;;;;;;13.76;61.12;101022.30;3422346;83;98963;-88
2022/09/04 01:42:26;;;;;;;4.58;1.45;;;;;;;13.67;61.43;101017.10;3397284;83;98974;-88
2022/09/04 01:47:45;;;;;;;7.55;1.82;;;;;;;13.57;61.81;101024.72;3418920;83;99078;-89
2022/09/04 01:53:12;;;;;;;6.15;2.37;;;;;;;13.48;62.06;101012.39;3426349;83;99641;-89
2022/09/04 01:58:21;;;;;;;5.17;2.00;;;;;;;13.40;62.49;101014.91;3420351;83;99046;-87
2022/09/04 02:03:51;;;;;;;6.62;2.08;;;;;;;13.33;62.63;101023.92;3432421;81;99119;-87
2022/09/04 02:09:14;;;;;;;6.25;2.00;;;;;;;13.27;62.98;101019.11;3433323;82;99015;-87
2022/09/04 02:14:48;;;;;;;5.47;1.67;;;;;;;13.16;63.42;101021.78;3421938;83;99051;-89
2022/09/04 02:20:11;;;;;;;7.55;2.55;;;;;;;13.10;64.17;101026.64;3428586;83;98784;-88
2022/09/04 02:25:21;;;;;;;6.67;2.30;;;;;;;12.97;64.64;101026.72;3422567;83;98897;-87
2022/09/04 02:30:22;;;;;;;6.58;2.30;;;;;;;12.87;66.29;101026.75;3424724;83;99032;-88
2022/09/04 02:35:31;;;;;;;5.35;2.30;;;;;;;12.76;65.42;101029.98;3425408;83;98882;-87
2022/09/04 02:41:11;;;;;;;5.47;2.22;;;;;;;12.65;65.97;101019.39;3424246;83;98866;-89
2022/09/04 02:46:27;;;;;;;5.15;2.08;;;;;;;12.62;66.39;101018.78;3397051;83;98973;-88
2022/09/04 02:52:00;;;;;;;6.00;1.92;;;;;;;12.56;67.29;101018.09;3419481;83;99102;-88
2022/09/04 02:57:49;;;;;;;5.30;2.15;;;;;;;12.50;66.43;101026.50;3416745;83;98918;-88
2022/09/04 03:03:16;;;;;;;6.15;2.35;;;;;;;12.40;66.81;101026.59;3369185;83;98775;-88
2022/09/04 03:08:23;;;;;;;;;;;;;;;12.40;66.95;101035.44;3433634;83;98789;-83
2022/09/04 03:13:50;;;;;;;5.97;2.52;;;;;;;12.37;68.29;101032.84;3426088;83;85384;-89
2022/09/04 03:19:05;;;;;;;5.37;2.20;;;;;;;12.26;67.69;101024.22;3413695;83;98845;-88
2022/09/04 03:24:27;;;;;;;6.35;2.05;;;;;;;12.14;67.58;101022.47;3408045;83;98797;-88
2022/09/04 03:29:45;;;;;;;6.00;2.27;;;;;;;11.99;67.65;101008.26;3381008;83;98900;-88
2022/09/04 03:35:13;;;;;;;5.03;2.17;;;;;;;11.99;67.65;101008.26;3411149;83;98735;-88
2022/09/04 03:40:41;;;;;;;8.73;2.65;;;;;;;12.01;68.66;101026.63;3391491;83;98710;-88
2022/09/04 03:45:57;;;;;;;6.05;2.37;;;;;;;11.98;68.67;101028.74;3392227;83;98853;-88
2022/09/04 03:51:24;;;;;;;5.35;2.08;;;;;;;11.95;68.74;101026.71;3402213;83;98912;-88
2022/09/04 03:56:59;;;;;;;5.70;2.30;;;;;;;11.96;68.76;101033.84;3405546;83;101061;-87
2022/09/04 04:02:18;;;;;;;6.47;2.53;;;;;;;11.87;69.02;101033.30;3391453;84;98983;-88
2022/09/04 04:07:39;;;;;;;7.35;2.70;;;;;;;11.85;69.23;101040.35;3398002;83;98792;-88
2022/09/04 04:13:18;;;;;;;6.50;2.52;;;;;;;11.88;69.32;101049.28;3402719;83;98813;-88
2022/09/04 04:18:44;;;;;;;5.83;2.50;;;;;;;11.79;69.81;101046.78;3329809;85;98966;-87
2022/09/04 04:24:05;;;;;;;5.80;2.57;;;;;;;11.79;69.90;101048.16;3382815;84;98984;-87
2022/09/04 04:29:24;;;;;;;6.28;2.60;;;;;;;11.84;70.81;101049.80;3397506;84;98814;-89
2022/09/04 04:34:29;;;;;;;6.87;2.63;;;;;;;11.69;71.02;101052.92;3419901;83;100042;-87
2022/09/04 04:39:47;;;;;;;9.45;2.37;;;;;;;11.60;70.99;101062.58;3459842;83;99244;-88
2022/09/04 04:50:56;;;;;;;7.35;2.77;;;;;;;11.57;72.30;101077.90;3456049;83;99064;-87
2022/09/04 04:56:23;;;;;;;6.78;2.95;;;;;;;11.54;72.47;101086.89;3460353;83;98920;-87
2022/09/04 05:01:45;;;;;;;8.73;3.05;;;;;;;11.50;72.31;101085.24;3460565;82;99659;-88
2022/09/04 05:07:01;;;;;;;8.23;2.80;;;;;;;11.57;72.79;101090.87;3456170;83;99025;-89
2022/09/04 05:12:25;;;;;;;6.87;2.90;;;;;;;11.54;72.81;101097.92;3463392;83;100150;-88
2022/09/04 05:17:41;;;;;;;4.87;2.42;;;;;;;11.50;73.33;101095.67;3422725;83;98987;-87
2022/09/04 05:23:02;;;;;;;7.03;3.52;;;;;;;11.53;73.47;101101.84;3457278;83;98902;-88
2022/09/04 05:28:27;;;;;;;7.03;3.15;;;;;;;11.58;74.67;101104.30;3457672;83;98695;-87
2022/09/04 05:33:54;;;;;;;9.80;3.58;;;;;;;11.61;73.79;101103.58;3462923;83;98755;-87
2022/09/04 05:39:16;;;;;;;6.72;2.60;;;;;;;11.68;74.35;101105.10;3467099;83;98797;-88
2022/09/04 05:44:49;;;;;;;8.45;4.03;;;;;;;11.71;74.53;101111.81;3463862;83;98674;-83
2022/09/04 05:50:27;;;;;;;9.10;3.03;;;;;;;11.83;74.40;101108.89;3474750;82;98927;-87
2022/09/04 05:56:04;;;;;;;9.53;3.80;;;;;;;11.95;75.08;101114.98;3489493;81;98745;-87
2022/09/04 06:01:49;;;;;;;6.90;2.95;;;;;;;12.13;74.69;101122.17;3491708;82;98930;-86
2022/09/04 06:07:12;;;;;;;7.87;3.33;;;;;;;12.35;75.15;101133.75;3487553;82;98842;-87
2022/09/04 06:12:30;;;;;;;7.47;3.33;;;;;;;12.51;75.15;101133.81;3488185;82;98922;-87
2022/09/04 06:18:00;;;;;;;8.23;3.50;;;;;;;12.70;75.00;101143.34;3480670;82;99109;-88
2022/09/04 06:23:23;;;;;;;7.90;3.37;;;;;;;12.89;75.29;101152.08;3490808;82;98772;-88
2022/09/04 06:29:00;;;;;;;9.23;4.28;;;;;;;13.07;74.90;101165.56;3455639;82;108104;-87
2022/09/04 06:34:28;;;;;;;7.05;3.47;;;;;;;13.23;75.42;101165.59;3454055;83;98970;-87
2022/09/04 06:39:56;;;;;;;6.93;3.60;;;;;;;13.39;75.34;101170.89;3448782;83;98824;-88
2022/09/04 06:45:40;;;;;;;9.20;4.40;;;;;;;13.58;75.71;101176.27;3446576;83;98890;-87
2022/09/04 06:51:15;;;;;;;10.13;3.95;;;;;;;13.77;75.12;101176.05;3439573;83;98889;-87
2022/09/04 06:56:21;;;;;;;8.00;3.37;;;;;;;13.97;75.20;101179.63;3450926;83;99596;-87
2022/09/04 07:01:39;;;;;;;10.25;4.33;;;;;;;14.20;75.02;101182.22;3454763;83;99322;-86
2022/09/04 07:07:02;;;;;;;7.92;3.70;;;;;;;14.40;74.78;101184.95;3439303;83;98944;-86
2022/09/04 07:12:40;;;;;;;8.38;3.17;;;;;;;14.61;74.81;101185.89;3451612;83;98928;-88
2022/09/04 07:18:20;;;;;;;9.23;4.58;;;;;;;14.86;74.45;101190.20;3455617;83;98989;-87
2022/09/04 07:23:49;;;;;;;6.80;3.52;;;;;;;15.04;74.06;101194.66;3452960;83;108166;-87
2022/09/04 07:29:40;;;;;;;8.45;3.27;;;;;;;15.24;73.90;101204.28;3481823;82;98760;-89
2022/09/04 07:35:16;;;;;;;7.53;3.35;;;;;;;15.47;73.78;101210.95;3488564;82;98699;-87
2022/09/04 07:40:26;;;;;;;8.10;3.10;;;;;;;15.71;73.11;101210.22;3485496;82;98770;-83
2022/09/04 07:45:37;;;;;;;6.15;3.05;;;;;;;15.92;72.68;101206.89;3491066;82;99261;-87
2022/09/04 07:51:04;;;;;;;6.60;3.17;;;;;;;16.17;72.47;101209.69;3489132;82;98982;-88
2022/09/04 07:56:18;;;;;;;;;;;;;;;16.40;71.72;101210.16;3492193;82;98867;-87
2022/09/04 08:01:32;;;;;;;7.25;3.02;;;;;;;16.63;71.44;101209.91;3489660;82;85508;-88
2022/09/04 08:06:59;;;;;;;7.00;2.77;;;;;;;16.85;71.01;101219.03;3488877;82;98937;-88
2022/09/04 08:12:26;;;;;;;6.17;2.90;;;;;;;17.14;70.65;101224.72;3488779;82;98966;-88
2022/09/04 08:17:52;;;;;;;7.40;3.20;;;;;;;17.43;70.08;101227.03;3488857;82;98816;-87
2022/09/04 08:23:44;;;;;;;6.17;3.37;;;;;;;17.75;69.41;101233.23;3488962;82;98752;-88
2022/09/04 08:29:27;;;;;;;7.70;3.33;;;;;;;18.11;69.10;101236.60;3448320;83;99190;-89
2022/09/04 08:34:46;;;;;;;5.30;2.50;;;;;;;18.55;68.38;101236.10;3466568;82;99761;-87
2022/09/04 08:40:26;;;;;;;5.50;2.87;;;;;;;19.15;67.86;101246.66;3469656;82;98884;-88
2022/09/04 08:46:02;;;;;;;8.47;2.90;;;;;;;19.86;66.77;101244.02;3469411;82;98790;-87
2022/09/04 08:51:44;;;;;;;7.17;2.40;;;;;;;20.75;64.40;101246.42;3469196;82;98724;-87
2022/09/04 08:57:12;;;;;;;7.95;2.40;;;;;;;21.72;62.61;101237.37;3401342;82;98665;-87
2022/09/04 09:03:01;;;;;;;6.28;2.37;;;;;;;22.52;59.08;101243.75;3466665;82;98937;-88
2022/09/04 09:08:41;;;;;;;5.92;2.60;;;;;;;23.11;59.05;101247.78;3464827;82;98790;-88
2022/09/04 09:14:30;;;;;;;13.18;3.42;;;;;;;24.14;57.96;101252.81;3448647;83;98950;-86
2022/09/04 09:19:59;;;;;;;5.60;2.52;;;;;;;25.21;56.75;101260.87;3467917;82;98999;-89
2022/09/04 09:25:23;;;;;;;5.05;2.62;;;;;;;26.04;54.33;101256.16;3469936;82;98957;-88
2022/09/04 09:30:27;;;;;;;7.15;2.77;;;;;;;26.44;51.63;101257.59;3469819;82;98890;-86
2022/09/04 09:36:19;;;;;;;7.35;2.62;;;;;;;27.29;50.95;101247.11;3469273;82;98955;-88
2022/09/04 09:41:42;;;;;;;4.25;2.55;;;;;;;27.82;48.52;101257.58;3441056;83;98841;-89
2022/09/04 09:47:00;;;;;;;8.25;3.27;;;;;;;28.20;46.89;101257.77;3468468;82;99498;-88
2022/09/04 09:52:30;;;;;;;5.35;3.02;;;;;;;28.53;45.18;101263.45;3457650;82;98904;-89
2022/09/04 09:57:54;;;;;;;7.97;3.17;;;;;;;28.23;43.84;101256.80;3469073;82;98892;-89
2022/09/04 10:03:15;;;;;;;4.40;2.77;;;;;;;28.40;44.28;101260.84;3472778;82;98773;-88
2022/09/04 10:08:48;;;;;;;6.03;2.90;;;;;;;28.62;43.17;101257.13;3463690;83;98943;-83
2022/09/04 10:14:34;;;;;;;9.40;3.47;;;;;;;28.30;41.49;101250.02;3461217;82;98863;-88
2022/09/04 10:20:23;;;;;;;6.90;3.00;;;;;;;28.39;41.83;101248.59;3457920;83;98777;-89
2022/09/04 10:25:51;;;;;;;7.00;2.83;;;;;;;27.90;40.81;101250.31;3469366;82;98832;-88
2022/09/04 10:31:30;;;;;;;6.50;3.30;;;;;;;27.08;40.60;101247.37;3485382;82;98768;-89
2022/09/04 10:36:53;;;;;;;9.38;3.17;;;;;;;27.07;39.93;101242.98;3489607;82;98621;-88
2022/09/04 10:42:18;;;;;;;7.53;2.83;;;;;;;27.05;39.94;101235.61;3489608;82;98752;-88
2022/09/04 10:47:26;;;;;;;8.28;3.08;;;;;;;26.75;39.94;101237.92;3485442;82;99246;-88
2022/09/04 10:52:54;;;;;;;7.10;3.67;;;;;;;26.34;40.14;101241.87;3489001;82;98749;-89
2022/09/04 10:58:30;;;;;;;8.60;3.30;;;;;;;26.42;38.41;101235.46;3489375;82;98750;-88
2022/09/04 11:03:59;;;;;;;7.60;3.05;;;;;;;25.70;39.43;101232.30;3490743;82;98886;-88
2022/09/04 11:09:18;;;;;;;8.05;3.62;;;;;;;26.17;40.11;101225.03;3480065;82;98610;-89
2022/09/04 11:14:36;;;;;;;6.25;2.87;;;;;;;26.48;39.26;101230.77;3489825;82;98912;-88
2022/09/04 11:20:05;;;;;;;5.87;2.90;;;;;;;26.55;39.56;101226.91;3489999;82;98873;-88
2022/09/04 11:25:27;;;;;;;6.83;3.30;;;;;;;26.91;38.19;101224.15;3484705;82;98799;-89
2022/09/04 11:30:50;;;;;;;6.00;2.92;;;;;;;26.62;37.11;101225.19;3489022;82;99223;-88
2022/09/04 11:36:11;;;;;;;9.08;3.35;;;;;;;26.66;37.40;101220.19;3484526;82;99101;-88
2022/09/04 11:41:59;;;;;;;5.05;2.52;;;;;;;27.14;37.38;101217.22;3486280;82;98934;-89
2022/09/04 11:47:44;;;;;;;6.17;2.95;;;;;;;27.26;37.44;101210.67;3433152;82;99306;-88
2022/09/04 11:53:00;;;;;;;6.30;3.12;;;;;;;27.09;35.85;101217.09;3486967;82;99093;-88
2022/09/04 11:58:16;;;;;;;8.03;3.30;;;;;;;27.01;36.61;101218.02;3471796;82;98818;-88
2022/09/04 12:03:48;;;;;;;6.97;2.90;;;;;;;27.25;36.02;101219.63;3494486;82;98870;-83
2022/09/04 12:09:21;;;;;;;7.20;3.27;;;;;;;27.36;36.24;101216.45;3483802;82;98925;-88
2022/09/04 12:14:30;;;;;;;5.90;3.10;;;;;;;27.39;35.42;101221.17;3480883;81;98896;-88
2022/09/04 12:19:53;;;;;;;12.23;3.52;;;;;;;27.20;35.40;101221.66;3487507;82;98847;-89
2022/09/04 12:25:02;;;;;;;8.10;3.30;;;;;;;27.19;36.03;101214.45;3488926;82;99031;-88
2022/09/04 12:30:22;;;;;;;10.20;2.80;;;;;;;26.75;35.15;101218.15;3478602;82;99063;-85
2022/09/04 12:35:40;;;;;;;8.67;3.27;;;;;;;26.62;36.43;101209.66;3372602;84;99067;-87
2022/09/04 12:40:47;;;;;;;6.78;3.55;;;;;;;26.55;35.46;101219.84;3384006;85;124876;-89
2022/09/04 12:45:59;;;;;;;8.88;3.42;;;;;;;26.54;36.04;101220.44;3392415;84;99068;-87
2022/09/04 12:51:11;;;;;;;7.40;3.45;;;;;;;26.40;37.06;101221.04;3415107;85;99161;-89
2022/09/04 12:56:35;;;;;;;7.55;3.90;;;;;;;26.57;37.23;101215.92;3419967;84;100017;-90
2022/09/04 13:02:16;;;;;;;7.70;3.50;;;;;;;26.61;36.31;101227.86;3412454;84;99123;-90
2022/09/04 13:07:39;;;;;;;6.53;3.37;;;;;;;26.07;36.94;101224.83;3415564;83;98922;-90
2022/09/04 13:13:10;;;;;;;5.45;2.80;;;;;;;26.03;37.42;101232.03;3407511;83;98862;-93
2022/09/04 13:18:45;;;;;;;7.17;4.08;;;;;;;25.81;37.31;101222.00;3431389;83;122406;-92
2022/09/04 13:24:40;;;;;;;6.87;3.40;;;;;;;25.68;37.50;101214.27;3450653;83;98902;-90
2022/09/04 13:30:05;;;;;;;6.45;3.70;;;;;;;25.52;38.02;101228.56;3453036;83;99091;-90
2022/09/04 13:35:54;;;;;;;6.95;3.67;;;;;;;25.26;37.62;101233.56;3448529;83;99235;-90
2022/09/04 13:41:35;;;;;;;8.58;3.45;;;;;;;25.42;37.82;101233.97;3432455;82;99520;-89
2022/09/04 13:46:53;;;;;;;6.95;3.12;;;;;;;25.26;38.32;101240.60;3422713;84;99125;-89
2022/09/04 13:57:47;;;;;;;9.23;3.83;;;;;;;25.34;38.40;101236.27;3270198;83;98963;-93
2022/09/04 14:02:55;;;;;;;8.73;3.40;;;;;;;25.07;38.07;101228.20;3422726;83;98760;-95
2022/09/04 14:13:51;;;;;;;7.53;3.60;;;;;;;25.11;38.76;101233.86;3326779;83;99477;-96
2022/09/04 14:19:32;;;;;;;9.10;4.03;;;;;;;25.03;39.18;101237.39;3461382;83;98767;-87
2022/09/04 14:24:59;;;;;;;7.95;3.45;;;;;;;24.83;39.45;101236.28;3453059;83;99240;-89
2022/09/04 14:30:16;;;;;;;8.00;4.05;;;;;;;24.73;38.81;101231.02;3381372;83;99163;-91
2022/09/04 14:35:45;;;;;;;7.22;3.40;;;;;;;24.68;38.89;101236.59;3443746;82;98734;-86
2022/09/04 14:41:24;;;;;;;5.83;3.00;;;;;;;24.54;38.41;101246.91;3440709;83;98674;-95
2022/09/04 14:46:47;;;;;;;7.73;3.73;;;;;;;24.41;38.36;101241.89;3357237;83;99207;-88
2022/09/04 14:51:55;;;;;;;10.32;3.87;;;;;;;24.48;38.79;101239.47;3459837;83;99019;-85
2022/09/04 14:57:42;;;;;;;9.28;4.08;;;;;;;24.53;40.07;101233.28;3454827;83;99072;-90
2022/09/04 15:03:03;;;;;;;8.08;3.65;;;;;;;24.31;38.89;101235.22;3456491;83;99155;-86
2022/09/04 15:08:09;;;;;;;6.72;3.62;;;;;;;24.17;38.78;101242.08;3439033;83;98891;-90
2022/09/04 15:13:30;;;;;;;6.70;3.00;;;;;;;23.80;38.64;101237.79;3462493;83;99197;-89
2022/09/04 15:18:59;;;;;;;12.00;4.42;;;;;;;23.66;39.55;101241.80;3434960;83;98915;-88
2022/09/04 15:24:15;;;;;;;6.80;3.67;;;;;;;23.66;40.34;101245.25;3453287;83;99241;-92
2022/09/04 15:29:55;;;;;;;9.88;4.33;;;;;;;23.53;39.79;101254.25;3448841;82;98904;-87
2022/09/04 15:35:26;;;;;;;7.20;3.87;;;;;;;23.29;38.97;101251.55;3421718;83;98902;-90
2022/09/04 15:40:36;;;;;;;8.80;3.03;;;;;;;23.05;38.95;101257.20;3417163;84;108203;-92
2022/09/04 15:45:56;;;;;;;6.03;3.25;;;;;;;22.80;39.31;101266.28;3434979;83;99457;-87
2022/09/04 15:51:34;;;;;;;6.47;3.35;;;;;;;22.65;39.84;101273.47;3407525;83;98954;-91
2022/09/04 15:56:44;;;;;;;6.15;3.40;;;;;;;22.56;40.56;101269.70;3408408;83;99027;-92
2022/09/04 16:02:11;;;;;;;6.72;3.37;;;;;;;22.39;40.54;101270.27;3425776;83;98911;-90
2022/09/04 16:07:33;;;;;;;7.15;3.90;;;;;;;22.19;39.97;101268.13;3415849;84;99013;-90
2022/09/04 16:12:47;;;;;;;8.88;3.98;;;;;;;22.05;40.17;101274.08;3411347;84;99149;-92
2022/09/04 16:17:54;;;;;;;8.15;3.80;;;;;;;21.94;40.43;101267.91;3424330;83;98963;-93
2022/09/04 16:23:06;;;;;;;11.00;3.62;;;;;;;21.88;40.74;101273.05;3400652;84;99191;-90
2022/09/04 16:28:31;;;;;;;8.15;3.67;;;;;;;21.77;40.91;101267.69;3409391;84;98796;-89
2022/09/04 16:33:41;;;;;;;6.87;3.35;;;;;;;21.72;41.29;101272.41;3420209;83;98767;-94
2022/09/04 16:39:02;;;;;;;7.72;3.35;;;;;;;21.63;41.63;101269.97;3439230;83;98698;-89
2022/09/04 16:44:14;;;;;;;7.87;3.87;;;;;;;21.51;41.46;101279.80;3446749;83;98619;-87
2022/09/04 16:49:46;;;;;;;7.92;3.50;;;;;;;21.41;42.10;101286.41;3435286;83;99025;-90
2022/09/04 16:54:54;;;;;;;6.65;3.60;;;;;;;21.31;42.24;101290.83;3447396;82;98978;-88
2022/09/04 17:00:03;;;;;;;8.75;4.05;;;;;;;21.18;42.43;101290.66;3411131;83;98964;-87
2022/09/04 17:05:18;;;;;;;7.17;3.75;;;;;;;21.08;42.84;101293.66;3420012;83;98918;-87
2022/09/04 17:10:49;;;;;;;7.13;3.90;;;;;;;20.98;43.31;101299.61;3417101;83;98995;-88
2022/09/04 17:16:20;;;;;;;8.63;3.35;;;;;;;20.87;43.96;101301.00;3422419;83;98675;-87
2022/09/04 17:26:57;;;;;;;8.60;3.90;;;;;;;20.58;44.35;101316.05;3442629;83;98896;-88
2022/09/04 17:32:28;;;;;;;9.48;4.00;;;;;;;20.42;44.94;101315.89;3439414;83;98924;-88
2022/09/04 17:37:40;;;;;;;8.77;4.00;;;;;;;20.28;44.99;101331.47;3455366;83;98866;-88
2022/09/04 17:43:08;;;;;;;7.90;3.87;;;;;;;20.13;45.66;101335.70;3463715;82;98925;-88
2022/09/04 17:48:40;;;;;;;8.95;4.20;;;;;;;19.99;46.04;101351.20;3357120;83;98923;-88
2022/09/04 17:53:46;;;;;;;9.75;4.70;;;;;;;19.86;46.66;101352.98;3467199;83;98870;-87
2022/09/04 17:59:04;;;;;;;;;;;;;;;19.70;46.90;101355.56;3461643;82;98942;-89
2022/09/04 18:04:36;;;;;;;9.58;4.12;;;;;;;19.55;48.08;101358.91;3465421;83;85232;-89
2022/09/04 18:09:45;;;;;;;10.00;4.87;;;;;;;19.41;47.90;101364.66;3469920;83;98692;-88
2022/09/04 18:15:07;;;;;;;11.35;3.98;;;;;;;19.24;48.50;101373.38;3464439;82;99251;-87
2022/09/04 18:20:21;;;;;;;9.95;4.08;;;;;;;19.09;49.07;101380.88;3464774;83;99299;-87
2022/09/04 18:25:41;;;;;;;11.10;4.90;;;;;;;18.95;49.25;101385.16;3468949;83;98631;-87
2022/09/04 18:31:01;;;;;;;10.40;4.30;;;;;;;18.78;49.34;101384.70;3438649;82;98933;-90
2022/09/04 18:36:19;;;;;;;9.83;4.65;;;;;;;18.64;49.52;101393.95;3456610;83;98927;-88
2022/09/04 18:41:31;;;;;;;14.50;4.72;;;;;;;18.49;50.12;101402.81;3453677;82;98946;-87
2022/09/04 18:46:34;;;;;;;8.25;4.50;;;;;;;18.37;50.59;101412.42;3453323;83;99297;-88
2022/09/04 18:51:50;;;;;;;8.50;4.40;;;;;;;18.22;50.77;101419.84;3444141;83;99231;-87
2022/09/04 18:57:00;;;;;;;9.05;4.72;;;;;;;18.14;51.08;101428.83;3443425;83;98886;-89
2022/09/04 19:02:12;;;;;;;8.70;4.58;;;;;;;18.05;51.64;101427.06;3442634;83;99221;-88
2022/09/04 19:07:33;;;;;;;8.80;4.47;;;;;;;17.95;51.75;101428.50;3441225;84;98543;-89
2022/09/04 19:12:48;;;;;;;9.15;5.28;;;;;;;17.86;52.11;101427.53;3440164;84;99229;-88
2022/09/04 19:17:54;;;;;;;10.25;5.45;;;;;;;17.61;52.55;101421.21;3445012;83;98578;-90
2022/09/04 19:23:03;;;;;;;11.35;4.95;;;;;;;17.61;52.55;101421.21;3427872;83;99118;-89
2022/09/04 19:28:15;;;;;;;11.35;5.20;;;;;;;17.68;53.63;101440.70;3452880;83;99190;-91
2022/09/04 19:33:47;;;;;;;8.90;4.78;;;;;;;17.62;54.08;101444.30;3445189;83;99337;-90
2022/09/04 19:38:54;;;;;;;11.05;4.25;;;;;;;17.47;53.99;101444.91;3389630;82;99013;-89
2022/09/04 19:44:12;;;;;;;12.18;4.90;;;;;;;17.37;54.89;101457.39;3459067;81;99758;-90
2022/09/04 19:49:23;;;;;;;11.88;4.58;;;;;;;17.26;55.14;101457.41;3473564;82;99208;-89
2022/09/04 19:54:38;;;;;;;10.35;4.85;;;;;;;17.13;55.56;101463.75;3462512;82;102381;-89
2022/09/04 19:59:47;;;;;;;11.15;5.28;;;;;;;16.96;55.71;101464.53;3466369;83;99315;-86
2022/09/04 20:04:54;;;;;;;8.98;4.65;;;;;;;16.82;55.98;101475.03;3448199;83;99173;-88
2022/09/04 20:09:58;;;;;;;8.45;4.72;;;;;;;16.75;56.47;101478.39;3477405;82;98874;-89
2022/09/04 20:15:17;;;;;;;9.58;4.85;;;;;;;16.65;57.16;101484.13;3478064;83;98626;-88
2022/09/04 20:20:25;;;;;;;13.25;5.25;;;;;;;16.55;57.04;101489.62;3479758;83;98747;-86
2022/09/04 20:25:31;;;;;;;9.25;3.92;;;;;;;16.44;57.42;101481.84;3444983;82;99050;-90
2022/09/04 20:30:35;;;;;;;8.43;4.00;;;;;;;16.32;57.42;101491.89;3455784;83;98976;-86
2022/09/04 20:35:53;;;;;;;9.45;3.85;;;;;;;16.20;57.75;101495.82;3463194;83;99507;-90
2022/09/04 20:41:08;;;;;;;8.48;3.65;;;;;;;16.11;57.81;101498.14;3454958;83;99388;-87
2022/09/04 20:46:21;;;;;;;10.13;3.72;;;;;;;16.00;58.19;101497.86;3448912;83;98948;-92
2022/09/04 20:51:32;;;;;;;7.20;3.12;;;;;;;15.93;58.37;101502.80;3450841;82;98755;-88
2022/09/04 20:56:50;;;;;;;9.93;3.00;;;;;;;15.85;58.41;101501.73;3452596;83;98884;-89
2022/09/04 21:02:18;;;;;;;8.38;3.10;;;;;;;15.80;58.48;101508.45;3428482;83;98874;-88
2022/09/04 21:07:33;;;;;;;6.78;2.85;;;;;;;15.73;58.50;101505.63;3441050;83;98788;-88
2022/09/04 21:12:50;;;;;;;5.80;2.67;;;;;;;15.68;58.59;101512.12;3445077;83;98769;-91
2022/09/04 21:18:15;;;;;;;4.47;2.37;;;;;;;15.62;58.60;101517.82;3446810;83;98956;-92
2022/09/04 21:23:49;;;;;;;7.58;2.50;;;;;;;15.58;58.89;101525.34;3456559;83;99058;-89
2022/09/04 21:29:29;;;;;;;6.28;2.70;;;;;;;15.54;58.37;101527.28;3432007;83;99062;-89
2022/09/04 21:34:50;;;;;;;7.28;2.62;;;;;;;15.50;58.29;101537.55;3467503;82;99116;-89
2022/09/04 21:40:25;;;;;;;6.37;1.98;;;;;;;15.47;58.28;101541.88;3390616;83;98718;-88
2022/09/04 21:46:01;;;;;;;7.03;2.42;;;;;;;15.42;58.24;101545.61;3414021;84;98756;-91
2022/09/04 21:51:13;;;;;;;5.12;2.00;;;;;;;15.37;58.15;101544.58;3417768;84;98967;-87
2022/09/04 21:56:44;;;;;;;5.20;2.20;;;;;;;15.31;58.14;101546.08;3427373;83;99056;-88
2022/09/04 22:02:25;;;;;;;7.67;2.00;;;;;;;15.27;58.12;101559.10;3344212;83;99124;-88
2022/09/04 22:07:37;;;;;;;8.73;2.03;;;;;;;15.22;58.18;101561.64;3420016;83;98896;-88
2022/09/04 22:12:59;;;;;;;5.70;1.98;;;;;;;15.19;58.12;101558.23;3436543;82;98753;-92
2022/09/04 22:18:21;;;;;;;9.95;2.00;;;;;;;15.17;58.09;101570.30;3432909;84;99054;-89
2022/09/04 22:24:03;;;;;;;6.05;2.35;;;;;;;15.11;57.95;101563.51;3432684;84;98912;-88
2022/09/04 22:29:33;;;;;;;5.85;2.00;;;;;;;15.09;57.97;101562.29;3437159;83;98838;-88
2022/09/04 22:35:23;;;;;;;5.50;1.95;;;;;;;15.04;57.94;101557.08;3367432;84;98695;-86
2022/09/04 22:40:51;;;;;;;5.50;2.05;;;;;;;14.99;58.00;101562.97;3486842;83;99207;-88
2022/09/04 22:46:18;;;;;;;5.33;1.95;;;;;;;14.92;58.15;101557.32;3449406;82;98978;-87
2022/09/04 22:52:06;;;;;;;5.10;2.12;;;;;;;14.85;58.08;101565.56;3441790;84;98833;-86
2022/09/04 22:57:13;;;;;;;;;;;;;;;14.79;58.14;101568.46;3428561;84;98845;-85
2022/09/04 23:02:42;;;;;;;4.70;1.90;;;;;;;14.69;58.70;101571.90;3441207;83;85270;-88
2022/09/04 23:07:52;;;;;;;4.17;1.70;;;;;;;14.62;58.23;101570.43;3438637;82;98875;-87
2022/09/04 23:13:38;;;;;;;6.87;1.90;;;;;;;14.53;58.40;101569.33;3423069;83;99141;-89
2022/09/04 23:19:06;;;;;;;10.13;3.05;;;;;;;14.45;58.42;101573.16;3417495;83;98680;-86
2022/09/04 23:24:52;;;;;;;3.52;1.62;;;;;;;14.36;58.86;101569.89;3425835;83;99047;-87
2022/09/04 23:30:04;;;;;;;3.92;2.00;;;;;;;14.28;58.73;101566.80;3428766;83;98669;-85
2022/09/04 23:35:38;;;;;;;3.12;1.52;;;;;;;14.24;58.71;101571.52;3465504;82;98828;-88
2022/09/04 23:40:58;;;;;;;6.20;2.02;;;;;;;14.18;59.10;101577.70;3387141;82;99034;-87
2022/09/04 23:46:23;;;;;;;6.85;1.90;;;;;;;14.11;59.15;101575.62;3392995;84;98808;-86
2022/09/04 23:51:58;;;;;;;6.17;2.17;;;;;;;14.09;59.38;101574.39;3376432;85;105842;-88
2022/09/04 23:57:16;;;;;;;5.40;2.05;;;;;;;14.04;59.29;101583.02;3400756;85;98798;-88
